createdAt,value
2022-08-07T00:01:44.394Z,99720.91
2022-08-07T00:04:11.374Z,99718.25
2022-08-07T00:06:51.372Z,99725.19
2022-08-07T00:09:22.423Z,99723.19
2022-08-07T00:11:55.877Z,99723.16
2022-08-07T00:14:31.236Z,99719.25
2022-08-07T00:17:01.585Z,99726.16
2022-08-07T00:19:59.567Z,99722.38
2022-08-07T00:22:24.547Z,99717.31
2022-08-07T00:25:07.045Z,99718.06
2022-08-07T00:27:53.188Z,99719.03
2022-08-07T00:30:27.303Z,99717.91
2022-08-07T00:32:58.350Z,99713.94
2022-08-07T00:35:29.833Z,99716.94
2022-08-07T00:37:59.950Z,99717.53
2022-08-07T00:40:36.442Z,99714.81
2022-08-07T00:44:00.229Z,99711.19
2022-08-07T00:46:02.931Z,99716.38
2022-08-07T00:48:32.890Z,99717.84
2022-08-07T00:51:02.928Z,99721.19
2022-08-07T00:53:38.823Z,99722.72
2022-08-07T00:56:19.165Z,99722.38
2022-08-07T00:58:50.224Z,99722.72
2022-08-07T01:01:21.495Z,99724.84
2022-08-07T01:03:55.546Z,99730.94
2022-08-07T01:06:28.525Z,99727.38
2022-08-07T01:09:00.607Z,99722.88
2022-08-07T01:12:23.722Z,99724.38
2022-08-07T01:14:28.354Z,99726.97
2022-08-07T01:16:59.312Z,99733.56
2022-08-07T01:19:32.309Z,99729.81
2022-08-07T01:22:08.798Z,99728.28
2022-08-07T01:24:43.308Z,99728.16
2022-08-07T01:27:19.867Z,99724.97
2022-08-07T01:29:51.868Z,99729.03
2022-08-07T01:32:22.676Z,99730.56
2022-08-07T01:34:55.863Z,99732.06
2022-08-07T01:37:29.535Z,99731.00
2022-08-07T01:40:07.007Z,99730.25
2022-08-07T01:42:58.533Z,99730.94
2022-08-07T01:45:36.859Z,99727.06
2022-08-07T01:48:19.928Z,99731.44
2022-08-07T01:51:24.243Z,99723.84
2022-08-07T01:54:09.621Z,99727.81
2022-08-07T01:56:51.077Z,99726.06
2022-08-07T01:59:30.913Z,99714.16
2022-08-07T02:02:07.047Z,99715.53
2022-08-07T02:04:52.538Z,99715.09
2022-08-07T02:07:36.228Z,99715.56
2022-08-07T02:10:28.042Z,99703.56
2022-08-07T02:13:01.182Z,99707.25
2022-08-07T02:15:39.863Z,99695.50
2022-08-07T02:18:13.357Z,99696.53
2022-08-07T02:20:48.713Z,99687.19
2022-08-07T02:23:24.174Z,99691.06
2022-08-07T02:26:31.253Z,99692.50
2022-08-07T02:28:49.224Z,99691.94
2022-08-07T02:31:29.169Z,99686.53
2022-08-07T02:34:02.778Z,99690.53
2022-08-07T02:36:34.368Z,99686.84
2022-08-07T02:39:17.069Z,99683.13
2022-08-07T02:42:10.354Z,99682.09
2022-08-07T02:44:49.893Z,99687.38
2022-08-07T02:47:23.980Z,99682.28
2022-08-07T02:50:05.401Z,99682.50
2022-08-07T02:52:40.630Z,99684.25
2022-08-07T02:55:28.359Z,99693.69
2022-08-07T02:58:14.759Z,99699.19
2022-08-07T03:00:46.795Z,99699.88
2022-08-07T03:03:21.086Z,99699.03
2022-08-07T03:05:55.413Z,99694.41
2022-08-07T03:08:29.200Z,99696.53
2022-08-07T03:11:01.894Z,99698.38
2022-08-07T03:13:49.510Z,99704.03
2022-08-07T03:16:23.083Z,99699.19
2022-08-07T03:18:58.296Z,99696.19
2022-08-07T03:21:28.089Z,99697.59
2022-08-07T03:24:21.159Z,99699.00
2022-08-07T03:26:59.132Z,99700.81
2022-08-07T03:29:38.804Z,99697.53
2022-08-07T03:32:18.023Z,99700.63
2022-08-07T03:35:16.746Z,99699.16
2022-08-07T03:37:46.122Z,99697.00
2022-08-07T03:40:30.893Z,99695.38
2022-08-07T03:43:10.031Z,99698.34
2022-08-07T03:45:48.587Z,99694.25
2022-08-07T03:48:22.699Z,99692.47
2022-08-07T03:54:05.742Z,99688.03
2022-08-07T03:56:33.031Z,99696.13
2022-08-07T03:59:09.969Z,99694.41
2022-08-07T04:01:50.962Z,99692.00
2022-08-07T04:04:24.512Z,99687.94
2022-08-07T04:07:00.153Z,99689.31
2022-08-07T04:09:45.226Z,99684.25
2022-08-07T04:12:28.250Z,99685.28
2022-08-07T04:15:00.819Z,99686.25
2022-08-07T04:18:57.225Z,99689.00
2022-08-07T04:20:25.318Z,99691.63
2022-08-07T04:23:01.405Z,99685.97
2022-08-07T04:25:39.341Z,99685.97
2022-08-07T04:28:13.293Z,99686.84
2022-08-07T04:30:55.427Z,99686.28
2022-08-07T04:33:36.151Z,99684.28
2022-08-07T04:36:08.829Z,99688.03
2022-08-07T04:38:40.654Z,99689.53
2022-08-07T04:41:19.064Z,99692.22
2022-08-07T04:44:14.471Z,99689.63
2022-08-07T04:46:59.594Z,99687.91
2022-08-07T04:49:57.789Z,99683.28
2022-08-07T04:52:46.808Z,99691.78
2022-08-07T04:58:13.820Z,99691.34
2022-08-07T04:58:34.917Z,99694.25
2022-08-07T05:01:19.143Z,99699.69
2022-08-07T05:04:06.375Z,99696.06
2022-08-07T05:06:51.755Z,99692.75
2022-08-07T05:09:42.934Z,99694.03
2022-08-07T05:12:27.267Z,99689.31
2022-08-07T05:15:23.239Z,99693.22
2022-08-07T05:18:08.714Z,99699.34
2022-08-07T05:20:43.097Z,99695.94
2022-08-07T05:23:19.130Z,99696.03
2022-08-07T05:26:11.505Z,99689.22
2022-08-07T05:28:46.637Z,99695.50
2022-08-07T05:31:24.939Z,99701.91
2022-08-07T05:34:05.810Z,99694.69
2022-08-07T05:36:44.666Z,99698.53
2022-08-07T05:40:06.439Z,99688.94
2022-08-07T05:42:34.860Z,99690.88
2022-08-07T05:45:26.088Z,99693.78
2022-08-07T05:48:06.338Z,99696.94
2022-08-07T05:50:48.229Z,99687.31
2022-08-07T05:54:13.790Z,99694.31
2022-08-07T05:56:13.302Z,99692.59
2022-08-07T05:58:52.815Z,99696.41
2022-08-07T06:01:34.928Z,99697.53
2022-08-07T06:04:09.641Z,99700.41
2022-08-07T06:06:46.210Z,99695.13
2022-08-07T06:09:18.892Z,99698.19
2022-08-07T06:11:52.112Z,99700.13
2022-08-07T06:14:30.222Z,99702.13
2022-08-07T06:17:07.023Z,99700.03
2022-08-07T06:19:52.006Z,99707.78
2022-08-07T06:22:36.872Z,99704.78
2022-08-07T06:25:21.795Z,99709.69
2022-08-07T06:28:03.236Z,99701.75
2022-08-07T06:30:37.950Z,99705.28
2022-08-07T06:33:16.913Z,99706.94
2022-08-07T06:36:13.415Z,99712.38
2022-08-07T06:38:58.540Z,99705.25
2022-08-07T06:42:03.055Z,99714.31
2022-08-07T06:44:51.430Z,99707.91
2022-08-07T06:47:21.523Z,99709.72
2022-08-07T06:49:58.559Z,99702.59
2022-08-07T06:52:37.235Z,99713.38
2022-08-07T06:55:33.475Z,99715.22
2022-08-07T06:58:10.179Z,99710.63
2022-08-07T07:00:52.739Z,99711.44
2022-08-07T07:03:39.541Z,99706.00
2022-08-07T07:06:11.004Z,99702.38
2022-08-07T07:08:46.635Z,99702.41
2022-08-07T07:12:08.622Z,99690.81
2022-08-07T07:14:08.507Z,99701.50
2022-08-07T07:16:49.790Z,99705.19
2022-08-07T07:19:56.374Z,99700.78
2022-08-07T07:22:35.970Z,99693.63
2022-08-07T07:26:32.401Z,99699.94
2022-08-07T07:28:03.386Z,99701.66
2022-08-07T07:30:40.327Z,99706.16
2022-08-07T07:33:13.853Z,99707.06
2022-08-07T07:36:04.150Z,99710.66
2022-08-07T07:38:35.887Z,99703.56
2022-08-07T07:41:09.294Z,99704.44
2022-08-07T07:44:14.669Z,99704.44
2022-08-07T07:46:55.176Z,99697.28
2022-08-07T07:50:35.613Z,99699.06
2022-08-07T07:52:19.553Z,99691.88
2022-08-07T07:54:51.456Z,99696.38
2022-08-07T07:57:43.875Z,99696.38
2022-08-07T08:00:29.192Z,99699.03
2022-08-07T08:03:05.583Z,99696.38
2022-08-07T08:05:51.156Z,99704.47
2022-08-07T08:08:35.314Z,99696.34
2022-08-07T08:11:16.279Z,99689.19
2022-08-07T08:13:54.680Z,99692.75
2022-08-07T08:16:35.617Z,99694.56
2022-08-07T08:19:09.741Z,99694.50
2022-08-07T08:22:08.076Z,99690.00
2022-08-07T08:25:18.616Z,99689.94
2022-08-07T08:27:57.492Z,99689.06
2022-08-07T08:30:42.694Z,99676.56
2022-08-07T08:33:21.915Z,99681.00
2022-08-07T08:35:55.929Z,99671.94
2022-08-07T08:38:40.424Z,99663.63
2022-08-07T08:41:18.776Z,99659.16
2022-08-07T08:43:59.300Z,99657.34
2022-08-07T08:46:40.605Z,99653.59
2022-08-07T08:49:32.748Z,99649.88
2022-08-07T08:52:14.437Z,99648.91
2022-08-07T08:55:07.741Z,99643.28
2022-08-07T08:57:41.401Z,99644.16
2022-08-07T09:00:12.345Z,99649.19
2022-08-07T09:02:53.067Z,99651.91
2022-08-07T09:05:37.818Z,99648.22
2022-08-07T09:08:28.613Z,99659.28
2022-08-07T09:11:14.028Z,99644.84
2022-08-07T09:14:09.657Z,99641.63
2022-08-07T09:16:49.894Z,99635.63
2022-08-07T09:19:53.541Z,99640.78
2022-08-07T09:24:28.914Z,99640.22
2022-08-07T09:25:27.943Z,99636.06
2022-08-07T09:28:06.158Z,99633.41
2022-08-07T09:31:03.003Z,99622.53
2022-08-07T09:33:57.958Z,99610.31
2022-08-07T09:36:35.464Z,99607.25
2022-08-07T09:39:53.902Z,99612.25
2022-08-07T09:42:33.280Z,99610.38
2022-08-07T09:47:55.030Z,99604.97
2022-08-07T09:48:19.084Z,99602.59
2022-08-07T09:51:14.562Z,99593.13
2022-08-07T09:54:02.344Z,99590.03
2022-08-07T09:56:53.525Z,99593.84
2022-08-07T10:00:01.007Z,99592.00
2022-08-07T10:04:07.151Z,99589.41
2022-08-07T10:06:42.166Z,99580.59
2022-08-07T10:10:00.621Z,99579.78
2022-08-07T10:12:53.179Z,99578.91
2022-08-07T10:15:56.123Z,99589.84
2022-08-07T10:18:51.209Z,99595.06
2022-08-07T10:22:14.161Z,99591.66
2022-08-07T10:24:57.605Z,99586.19
2022-08-07T10:27:47.084Z,99591.41
2022-08-07T10:30:20.074Z,99588.84
2022-08-07T10:34:06.061Z,99594.31
2022-08-07T10:36:30.277Z,99593.44
2022-08-07T10:39:20.009Z,99589.88
2022-08-07T10:42:09.335Z,99595.28
2022-08-07T10:45:01.433Z,99595.28
2022-08-07T10:47:53.887Z,99591.69
2022-08-07T10:50:28.886Z,99589.44
2022-08-07T10:53:09.036Z,99593.06
2022-08-07T10:55:50.410Z,99595.78
2022-08-07T10:58:40.314Z,99594.03
2022-08-07T11:01:23.945Z,99605.69
2022-08-07T11:04:23.334Z,99599.41
2022-08-07T11:07:02.031Z,99586.84
2022-08-07T11:10:09.293Z,99580.53
2022-08-07T11:12:35.534Z,99580.56
2022-08-07T11:15:14.547Z,99572.47
2022-08-07T11:17:53.802Z,99575.19
2022-08-07T11:20:27.592Z,99572.47
2022-08-07T11:23:04.350Z,99574.28
2022-08-07T11:25:48.034Z,99577.88
2022-08-07T11:28:26.593Z,99570.63
2022-08-07T11:31:00.955Z,99576.00
2022-08-07T11:33:59.524Z,99567.91
2022-08-07T11:36:39.367Z,99572.50
2022-08-07T11:39:20.635Z,99567.09
2022-08-07T11:42:03.186Z,99559.91
2022-08-07T11:44:52.760Z,99562.59
2022-08-07T11:47:56.450Z,99564.25
2022-08-07T11:50:44.657Z,99565.72
2022-08-07T11:53:43.371Z,99566.28
2022-08-07T11:56:53.044Z,99569.31
2022-08-07T12:00:12.226Z,99553.44
2022-08-07T12:03:44.698Z,99547.13
2022-08-07T12:06:39.545Z,99548.91
2022-08-07T12:09:16.454Z,99541.69
2022-08-07T12:12:08.764Z,99540.09
2022-08-07T12:15:01.132Z,99538.25
2022-08-07T12:17:58.556Z,99550.97
2022-08-07T12:20:34.786Z,99531.44
2022-08-07T12:24:07.707Z,99543.38
2022-08-07T12:26:46.097Z,99592.13
2022-08-07T12:29:37.887Z,99593.81
2022-08-07T12:32:17.105Z,99618.63
2022-08-07T12:34:55.846Z,99618.06
2022-08-07T12:37:28.495Z,99612.00
2022-08-07T12:40:46.618Z,99626.41
2022-08-07T12:44:01.486Z,99627.28
2022-08-07T12:46:15.913Z,99622.22
2022-08-07T12:49:10.262Z,99650.56
2022-08-07T12:52:12.023Z,99639.34
2022-08-07T12:54:55.003Z,99632.56
2022-08-07T12:58:00.283Z,99638.25
2022-08-07T13:00:32.759Z,99638.78
2022-08-07T13:03:55.059Z,99658.28
2022-08-07T13:07:00.520Z,99676.75
2022-08-07T13:10:28.620Z,99666.03
2022-08-07T13:12:52.278Z,99678.56
2022-08-07T13:15:34.067Z,99680.13
2022-08-07T13:18:28.269Z,99692.78
2022-08-07T13:21:07.765Z,99708.78
2022-08-07T13:24:01.441Z,99710.69
2022-08-07T13:26:41.790Z,99689.03
2022-08-07T13:29:20.901Z,99705.81
2022-08-07T13:31:57.274Z,99700.56
2022-08-07T13:34:44.786Z,99700.72
2022-08-07T13:37:24.554Z,99702.66
2022-08-07T13:40:35.061Z,99698.06
2022-08-07T13:43:00.832Z,99712.53
2022-08-07T13:46:12.829Z,99723.25
2022-08-07T13:48:34.239Z,99729.41
2022-08-07T13:51:28.547Z,99723.88
2022-08-07T13:54:00.853Z,99736.88
2022-08-07T13:56:41.133Z,99742.97
2022-08-07T13:59:25.606Z,99751.97
2022-08-07T14:02:07.731Z,99752.66
2022-08-07T14:04:50.107Z,99730.69
2022-08-07T14:07:27.987Z,99730.09
2022-08-07T14:10:17.450Z,99733.19
2022-08-07T14:12:55.818Z,99735.22
2022-08-07T14:15:32.132Z,99742.69
2022-08-07T14:18:24.080Z,99736.25
2022-08-07T14:21:08.236Z,99741.50
2022-08-07T14:24:00.538Z,99744.47
2022-08-07T14:26:37.342Z,99751.66
2022-08-07T14:30:06.413Z,99749.63
2022-08-07T14:32:04.915Z,99755.44
2022-08-07T14:34:46.064Z,99758.78
2022-08-07T14:37:19.065Z,99776.94
2022-08-07T14:40:15.753Z,99771.59
2022-08-07T14:43:55.594Z,99763.31
2022-08-07T14:45:46.617Z,99764.41
2022-08-07T14:48:22.317Z,99762.19
2022-08-07T14:51:00.595Z,99740.13
2022-08-07T14:54:08.558Z,99736.72
2022-08-07T14:56:30.157Z,99733.53
2022-08-07T14:59:13.829Z,99722.00
2022-08-07T15:01:58.448Z,99715.88
2022-08-07T15:04:28.888Z,99718.84
2022-08-07T15:07:00.812Z,99713.47
2022-08-07T15:09:57.264Z,99709.72
2022-08-07T15:15:23.770Z,99707.13
2022-08-07T15:18:02.597Z,99712.63
2022-08-07T15:20:55.497Z,99710.31
2022-08-07T15:25:02.042Z,99706.44
2022-08-07T15:26:28.627Z,99706.75
2022-08-07T15:32:01.595Z,99705.44
2022-08-07T15:34:37.868Z,99705.13
2022-08-07T15:37:27.421Z,99707.28
2022-08-07T15:40:01.102Z,99719.34
2022-08-07T15:42:51.840Z,99723.34
2022-08-07T15:45:55.858Z,99733.25
2022-08-07T15:48:37.469Z,99741.50
2022-08-07T15:54:19.407Z,99753.63
2022-08-07T15:56:50.388Z,99753.63
2022-08-07T15:59:39.467Z,99760.09
2022-08-07T16:02:15.675Z,99759.03
2022-08-07T16:04:45.832Z,99764.97
2022-08-07T16:08:30.619Z,99761.56
2022-08-07T16:10:14.876Z,99756.97
2022-08-07T16:13:04.661Z,99749.19
2022-08-07T16:15:58.976Z,99747.72
2022-08-07T16:18:50.779Z,99735.72
2022-08-07T16:21:56.990Z,99707.44
2022-08-07T16:24:34.938Z,99723.47
2022-08-07T16:27:20.890Z,99751.28
2022-08-07T16:30:30.171Z,99753.16
2022-08-07T16:33:00.442Z,99748.16
2022-08-07T16:36:03.001Z,99750.34
2022-08-07T16:39:01.016Z,99756.28
2022-08-07T16:41:54.308Z,99760.66
2022-08-07T16:45:03.846Z,99768.63
2022-08-07T16:47:56.856Z,99761.50
2022-08-07T16:50:52.557Z,99763.13
2022-08-07T16:54:02.908Z,99764.03
2022-08-07T16:56:57.218Z,99770.09
2022-08-07T16:59:46.414Z,99776.19
2022-08-07T17:02:52.267Z,99793.81
2022-08-07T17:06:28.739Z,99813.53
2022-08-07T17:09:08.835Z,99816.19
2022-08-07T17:12:03.921Z,99826.59
2022-08-07T17:14:45.335Z,99830.59
2022-08-07T17:17:46.612Z,99832.25
2022-08-07T17:20:30.003Z,99833.09
2022-08-07T17:23:08.633Z,99837.34
2022-08-07T17:25:54.732Z,99837.19
2022-08-07T17:28:38.139Z,99841.50
2022-08-07T17:31:17.085Z,99836.19
2022-08-07T17:34:18.159Z,99836.44
2022-08-07T17:36:57.429Z,99843.84
2022-08-07T17:39:58.892Z,99839.16
2022-08-07T17:42:59.483Z,99846.63
2022-08-07T17:45:35.334Z,99840.78
2022-08-07T17:48:10.404Z,99840.78
2022-08-07T17:50:54.478Z,99844.44
2022-08-07T17:54:01.474Z,99839.88
2022-08-07T17:56:28.848Z,99844.44
2022-08-07T17:59:10.713Z,99849.22
2022-08-07T18:01:51.753Z,99842.06
2022-08-07T18:04:36.016Z,99843.72
2022-08-07T18:07:20.898Z,99850.69
2022-08-07T18:10:07.369Z,99858.09
2022-08-07T18:13:06.875Z,99849.22
2022-08-07T18:15:57.125Z,99855.22
2022-08-07T18:18:44.995Z,99861.13
2022-08-07T18:21:51.637Z,99864.47
2022-08-07T18:24:28.509Z,99862.94
2022-08-07T18:27:38.414Z,99861.84
2022-08-07T18:30:30.807Z,99858.81
2022-08-07T18:33:37.851Z,99860.31
2022-08-07T18:36:18.428Z,99857.63
2022-08-07T18:40:09.058Z,99853.06
2022-08-07T18:42:18.926Z,99856.19
2022-08-07T18:48:01.560Z,99871.09
2022-08-07T18:50:55.788Z,99877.59
2022-08-07T18:53:39.923Z,99864.03
2022-08-07T18:56:21.161Z,99869.53
2022-08-07T18:59:47.342Z,99873.88
2022-08-07T19:02:34.051Z,99876.22
2022-08-07T19:05:24.734Z,99885.63
2022-08-07T19:08:03.933Z,99884.84
2022-08-07T19:10:51.955Z,99886.38
2022-08-07T19:13:27.700Z,99880.88
2022-08-07T19:16:43.129Z,99894.75
2022-08-07T19:19:06.105Z,99895.00
2022-08-07T19:21:56.088Z,99892.16
2022-08-07T19:24:43.325Z,99894.69
2022-08-07T19:28:31.057Z,99891.09
2022-08-07T19:30:55.555Z,99899.25
2022-08-07T19:33:12.775Z,99884.19
2022-08-07T19:35:45.253Z,99894.63
2022-08-07T19:38:18.846Z,99898.03
2022-08-07T19:40:52.480Z,99904.25
2022-08-07T19:43:49.000Z,99900.59
2022-08-07T19:46:35.608Z,99891.69
2022-08-07T19:49:08.419Z,99888.91
2022-08-07T19:51:52.161Z,99888.97
2022-08-07T19:54:35.150Z,99891.53
2022-08-07T19:58:02.300Z,99886.25
2022-08-07T20:00:08.887Z,99878.00
2022-08-07T20:02:52.323Z,99883.91
2022-08-07T20:05:27.813Z,99889.78
2022-08-07T20:08:01.576Z,99893.03
2022-08-07T20:10:51.945Z,99888.06
2022-08-07T20:13:41.791Z,99891.69
2022-08-07T20:16:15.836Z,99893.03
2022-08-07T20:19:12.089Z,99904.63
2022-08-07T20:21:47.672Z,99892.34
2022-08-07T20:24:23.247Z,99895.69
2022-08-07T20:26:56.471Z,99896.75
2022-08-07T20:29:48.093Z,99898.47
2022-08-07T20:32:25.557Z,99899.16
2022-08-07T20:35:01.442Z,99892.28
2022-08-07T20:37:57.666Z,99907.09
2022-08-07T20:40:34.288Z,99908.78
2022-08-07T20:43:09.692Z,99916.63
2022-08-07T20:46:26.873Z,99919.88
2022-08-07T20:48:38.615Z,99923.41
2022-08-07T20:51:29.990Z,99921.44
2022-08-07T20:54:07.163Z,99912.91
2022-08-07T20:56:46.030Z,99912.63
2022-08-07T20:59:27.225Z,99914.66
2022-08-07T21:02:34.218Z,99918.75
2022-08-07T21:05:10.190Z,99924.78
2022-08-07T21:07:49.735Z,99919.66
2022-08-07T21:10:29.449Z,99921.31
2022-08-07T21:13:04.499Z,99924.66
2022-08-07T21:15:47.856Z,99916.72
2022-08-07T21:18:33.443Z,99919.72
2022-08-07T21:21:04.864Z,99917.66
2022-08-07T21:23:50.466Z,99923.94
2022-08-07T21:26:30.743Z,99915.97
2022-08-07T21:29:06.797Z,99923.09
2022-08-07T21:32:43.747Z,99925.50
2022-08-07T21:34:46.344Z,99931.19
2022-08-07T21:37:22.946Z,99930.53
2022-08-07T21:39:59.426Z,99939.13
2022-08-07T21:42:45.966Z,99931.34
2022-08-07T21:46:08.452Z,99929.34
2022-08-07T21:48:32.464Z,99929.94
2022-08-07T21:51:20.401Z,99920.78
2022-08-07T21:53:56.436Z,99929.97
2022-08-07T21:56:47.169Z,99923.97
2022-08-07T22:00:03.035Z,99915.34
2022-08-07T22:02:32.199Z,99907.19
2022-08-07T22:05:04.441Z,99914.00
2022-08-07T22:07:48.643Z,99920.19
2022-08-07T22:10:32.781Z,99923.19
2022-08-07T22:13:13.758Z,99924.69
2022-08-07T22:16:39.780Z,99932.41
2022-08-07T22:18:43.305Z,99941.06
2022-08-07T22:21:20.484Z,99946.63
2022-08-07T22:23:56.150Z,99948.84
2022-08-07T22:26:30.682Z,99947.53
2022-08-07T22:29:14.011Z,99959.97
2022-08-07T22:32:00.305Z,99962.38
2022-08-07T22:34:52.949Z,99952.16
2022-08-07T22:38:03.486Z,99943.72
2022-08-07T22:40:27.929Z,99950.63
2022-08-07T22:43:09.419Z,99938.91
2022-08-07T22:46:21.847Z,99936.28
2022-08-07T22:49:07.705Z,99954.53
2022-08-07T22:52:07.004Z,99969.03
2022-08-07T22:55:17.203Z,99971.84
2022-08-07T22:58:27.685Z,99978.72
2022-08-07T23:01:16.500Z,99987.47
2022-08-07T23:03:58.278Z,99981.28
2022-08-07T23:06:50.005Z,99978.47
2022-08-07T23:10:03.848Z,99982.91
2022-08-07T23:12:37.987Z,99985.28
2022-08-07T23:16:06.063Z,99981.66
2022-08-07T23:18:25.997Z,99979.00
2022-08-07T23:21:20.953Z,99980.09
2022-08-07T23:24:20.201Z,99968.78
2022-08-07T23:27:14.624Z,99967.56
2022-08-07T23:30:39.125Z,99959.06
2022-08-07T23:34:36.191Z,99963.16
2022-08-07T23:36:17.312Z,99961.16
2022-08-07T23:39:08.565Z,99962.06
2022-08-07T23:42:01.677Z,99973.38
2022-08-07T23:45:15.086Z,99974.97
2022-08-07T23:48:17.043Z,99957.97
2022-08-07T23:50:54.508Z,99962.25
2022-08-07T23:53:51.202Z,99960.97
2022-08-07T23:56:28.064Z,99957.00
